Ginys del Meteocat
Campanya meteocatpedra

Dades de l'estació automàtica Aitona

?
?
Resum diari 21:30 TU
Dades diàries de l'estació meteorològica
Temperatura mitjana 14.5 °C
Temperatura màxima 23.0 °C 14:57 TU
Temperatura mínima 7.7 °C 3:15 TU
Humitat relativa mitjana 85%
Precipitació acumulada 0.3 mm
Ratxa màxima del vent (2 m) 7.2 km/h - 35º 5:26 TU
Irradiació solar global 9.4 MJ/m2

El tram horari està expressat en Temps Universal (TU). Cal sumar una hora en horari d'hivern i dues en horari d'estiu per passar a l'hora oficial.

Aitona

Metadades estació meteorol´gica
Municipi Aitona
Comarca Segrià
Altitud 97 m
Data alta 12.03.1998
Estat actual Operativa
Dades de període
Període
TU
TM
°C
TX
°C
TN
°C
HRM
%
PPT
mm
VVM (2 m)
km/h
DVM (2 m)
graus
VVX (2 m)
km/h
RS
W/m2
00:00 - 00:30 8.3 8.5 8.1 96 0.0 0.0 48 2.5 0
00:30 - 01:00 8.1 8.4 8.0 96 0.0 0.0 324 0.7 0
01:00 - 01:30 8.0 8.3 7.8 97 0.0 0.0 0 0.0 0
01:30 - 02:00 8.4 8.8 8.0 97 0.0 0.7 359 3.2 0
02:00 - 02:30 8.0 8.4 7.9 97 0.0 0.4 10 2.5 0
02:30 - 03:00 7.9 8.3 7.7 96 0.0 0.0 41 1.4 0
03:00 - 03:30 7.8 8.1 7.7 97 0.0 0.0 0 0.0 0
03:30 - 04:00 8.1 8.3 8.0 97 0.0 0.0 41 1.8 0
04:00 - 04:30 8.3 8.7 8.1 97 0.0 0.4 28 2.2 0
04:30 - 05:00 8.4 8.6 8.0 97 0.0 1.1 40 2.9 0
05:00 - 05:30 8.9 9.3 8.7 97 0.0 1.8 41 7.2 0
05:30 - 06:00 9.2 9.3 9.1 96 0.0 1.4 50 4.7 0
06:00 - 06:30 9.7 10.1 9.3 96 0.3 1.1 68 5.4 4
06:30 - 07:00 10.3 10.3 10.1 97 0.0 0.4 62 1.8 29
07:00 - 07:30 10.9 11.8 10.4 96 0.0 1.1 319 3.2 115
07:30 - 08:00 12.7 13.1 11.9 90 0.0 0.7 340 2.9 174
08:00 - 08:30 13.1 13.4 12.9 88 0.0 1.8 37 5.8 171
08:30 - 09:00 13.9 14.4 13.4 86 0.0 2.2 22 5.8 240
09:00 - 09:30 14.6 14.8 14.4 83 0.0 1.8 41 5.4 201
09:30 - 10:00 15.0 15.7 14.6 81 0.0 1.1 87 5.4 219
10:00 - 10:30 16.6 17.1 15.7 75 0.0 1.1 210 4.3 436
10:30 - 11:00 17.6 18.6 17.2 71 0.0 1.1 16 5.4 402
11:00 - 11:30 18.2 18.7 17.9 70 0.0 2.9 28 6.1 392
11:30 - 12:00 19.3 19.9 18.7 67 0.0 1.4 349 4.7 466
12:00 - 12:30 20.7 21.3 20.0 64 0.0 1.4 343 5.0 518
12:30 - 13:00 21.1 21.5 20.7 63 0.0 1.8 54 6.5 390
13:00 - 13:30 21.2 21.7 20.9 64 0.0 1.8 69 5.8 261
13:30 - 14:00 21.6 21.9 21.4 62 0.0 4.3 30 7.2 269
14:00 - 14:30 21.9 22.2 21.7 61 0.0 3.2 42 6.8 284
14:30 - 15:00 22.6 23.0 22.2 60 0.0 2.5 43 6.8 327
15:00 - 15:30 22.6 23.0 22.4 63 0.0 0.4 78 3.6 150
15:30 - 16:00 22.0 22.4 21.6 69 0.0 0.4 171 1.4 98
16:00 - 16:30 21.4 21.6 21.2 74 0.0 0.4 219 1.8 62
16:30 - 17:00 21.1 21.4 20.7 74 0.0 0.7 329 5.4 25
17:00 - 17:30 19.6 20.8 18.8 78 0.0 0.7 151 4.0 1
17:30 - 18:00 17.6 18.7 16.8 86 0.0 0.4 103 1.8 0
18:00 - 18:30 16.2 16.8 15.5 91 0.0 0.4 98 1.8 0
18:30 - 19:00 14.9 15.4 14.5 94 0.0 0.0 116 2.2 0
19:00 - 19:30 14.2 14.6 13.8 95 0.0 0.0 118 1.4 0
19:30 - 20:00 14.0 14.2 13.7 96 0.0 0.4 68 3.2 0
20:00 - 20:30 14.0 14.2 13.8 95 0.0 0.7 71 2.9 0
20:30 - 21:00 13.8 14.0 13.6 96 0.0 0.4 74 2.2 0
21:00 - 21:30 13.6 14.0 13.4 96 0.0 0.7 55 4.3 0
21:30 - 22:00 13.5 13.8 13.2 96 0.0 0.7 78 2.9 0

Les dades en taronja només han passat un control de qualitat automàtic. Resta pendent la seva validació definitiva.